Time;durP1;ratioP1;P1;durP2;ratioP2;P2;SDS_P1;SDS_P2;PMS_P1;PMS_P2;Temp;Humidity;BMP_temperature;BMP_pressure;BME280_temperature;BME280_humidity;BME280_pressure;Samples;Min_cycle;Max_cycle;Signal;HPM_P1;HPM_P2
2023/08/31 00:00:41;;;;;;;76.70;71.50;;;10.50;82.40;;;;;;4988724;28;20046;-60
2023/08/31 00:03:08;;;;;;;84.38;78.63;;;10.50;82.30;;;;;;4986822;28;20058;-60
2023/08/31 00:05:37;;;;;;;59.90;55.22;;;10.50;82.00;;;;;;4987537;28;20050;-59
2023/08/31 00:08:03;;;;;;;84.03;78.18;;;10.50;81.90;;;;;;4970965;28;20116;-60
2023/08/31 00:10:29;;;;;;;78.38;72.82;;;10.50;81.70;;;;;;4987803;28;20042;-59
2023/08/31 00:12:55;;;;;;;40.75;37.65;;;10.60;81.50;;;;;;4982737;28;20051;-60
2023/08/31 00:15:21;;;;;;;72.03;67.13;;;10.70;81.50;;;;;;4985783;28;20046;-59
2023/08/31 00:17:47;;;;;;;64.65;60.28;;;10.70;81.50;;;;;;4970268;28;20490;-60
2023/08/31 00:20:13;;;;;;;61.30;56.97;;;10.70;81.80;;;;;;4986454;28;20505;-60
2023/08/31 00:22:38;;;;;;;28.38;26.20;;;10.70;81.80;;;;;;4982673;28;20121;-60
2023/08/31 00:25:08;;;;;;;61.78;57.00;;;10.70;81.80;;;;;;4985499;28;20578;-59
2023/08/31 00:27:37;;;;;;;53.60;49.58;;;10.70;81.80;;;;;;4973451;28;20081;-60
2023/08/31 00:30:07;;;;;;;73.25;67.53;;;10.70;81.90;;;;;;4988301;28;20057;-59
2023/08/31 00:32:34;;;;;;;49.07;44.90;;;10.70;81.90;;;;;;4986682;28;20042;-59
2023/08/31 00:34:59;;;;;;;35.20;32.15;;;10.70;82.00;;;;;;4985764;28;20182;-59
2023/08/31 00:37:25;;;;;;;73.90;68.40;;;10.60;82.10;;;;;;4968268;28;20124;-60
2023/08/31 00:39:52;;;;;;;75.35;69.88;;;10.60;82.10;;;;;;4991796;28;20042;-60
2023/08/31 00:42:18;;;;;;;71.45;66.32;;;10.60;82.20;;;;;;4987545;28;20413;-60
2023/08/31 00:44:46;;;;;;;32.10;29.75;;;10.60;82.20;;;;;;4987698;28;20086;-59
2023/08/31 00:47:15;;;;;;;90.65;83.85;;;10.60;82.30;;;;;;4969283;28;20066;-59
2023/08/31 00:49:41;;;;;;;28.88;26.25;;;10.60;82.50;;;;;;4986245;28;20039;-59
2023/08/31 00:52:08;;;;;;;73.53;68.50;;;10.60;82.60;;;;;;4985162;28;20099;-59
2023/08/31 00:54:34;;;;;;;57.45;52.95;;;10.60;82.70;;;;;;4991053;28;20567;-60
2023/08/31 00:57:00;;;;;;;45.88;42.22;;;10.60;82.70;;;;;;4970927;28;20512;-59
2023/08/31 00:59:26;;;;;;;87.32;81.05;;;10.60;82.90;;;;;;4983493;28;20042;-59
2023/08/31 01:01:55;;;;;;;61.40;56.25;;;10.60;82.80;;;;;;4986649;28;20039;-60
2023/08/31 01:04:42;;;;;;;23.80;21.80;;;10.60;82.80;;;;;;4985701;28;20046;-60
2023/08/31 01:07:26;;;;;;;21.08;18.05;;;10.60;82.80;;;;;;4971064;28;20065;-59
2023/08/31 01:10:04;;;;;;;22.67;20.58;;;10.60;82.80;;;;;;4981430;28;20054;-60
2023/08/31 01:12:40;;;;;;;38.47;34.88;;;10.60;82.80;;;;;;4986150;28;20045;-59
2023/08/31 01:15:11;;;;;;;56.75;51.97;;;10.50;82.80;;;;;;4986466;28;20556;-59
2023/08/31 01:17:44;;;;;;;30.17;27.67;;;10.50;82.90;;;;;;4977919;28;20564;-59
2023/08/31 01:20:14;;;;;;;42.15;38.42;;;10.40;82.90;;;;;;4986072;28;20508;-60
2023/08/31 01:23:03;;;;;;;52.00;47.58;;;10.40;83.00;;;;;;4986221;28;20122;-59
2023/08/31 01:25:30;;;;;;;38.08;34.60;;;10.40;83.00;;;;;;4986099;28;20050;-60
2023/08/31 01:27:56;;;;;;;29.90;27.17;;;10.30;83.00;;;;;;4970561;28;20402;-59
2023/08/31 01:30:22;;;;;;;25.17;22.50;;;10.30;83.10;;;;;;4986893;28;20662;-59
2023/08/31 01:32:48;;;;;;;42.60;38.60;;;10.20;83.10;;;;;;4986663;28;20469;-59
2023/08/31 01:35:16;;;;;;;27.73;25.02;;;10.20;83.10;;;;;;4986876;28;20046;-59
2023/08/31 01:37:59;;;;;;;25.98;22.92;;;10.20;83.20;;;;;;4971623;28;20613;-60
2023/08/31 01:40:45;;;;;;;25.67;19.80;;;10.10;83.10;;;;;;4991996;28;20046;-59
2023/08/31 01:43:12;;;;;;;25.00;20.95;;;10.10;83.20;;;;;;4984962;28;20050;-60
2023/08/31 01:45:46;;;;;;;36.97;33.80;;;10.10;83.30;;;;;;4986230;28;20398;-59
2023/08/31 01:48:14;;;;;;;19.48;17.75;;;10.10;83.40;;;;;;4985334;28;20050;-59
2023/08/31 01:50:40;;;;;;;31.58;27.95;;;10.10;83.40;;;;;;4986988;28;20054;-60
2023/08/31 01:53:06;;;;;;;48.13;43.72;;;10.00;83.40;;;;;;4986261;28;20043;-60
2023/08/31 01:55:32;;;;;;;32.58;25.83;;;10.00;83.40;;;;;;4991358;28;20066;-59
2023/08/31 01:57:58;;;;;;;17.55;15.48;;;10.00;83.40;;;;;;4970642;28;20074;-59
2023/08/31 02:00:25;;;;;;;11.90;10.70;;;10.00;83.30;;;;;;4987208;28;20057;-59
2023/08/31 02:02:51;;;;;;;11.15;9.65;;;10.00;83.40;;;;;;4984718;28;20401;-60
2023/08/31 02:05:17;;;;;;;17.88;16.00;;;10.00;83.40;;;;;;4986954;28;20043;-60
2023/08/31 02:07:42;;;;;;;13.18;10.25;;;10.00;83.40;;;;;;4970925;28;20130;-59
2023/08/31 02:10:09;;;;;;;16.83;15.40;;;10.00;83.40;;;;;;4986464;28;20038;-61
2023/08/31 02:12:36;;;;;;;15.70;13.93;;;10.00;83.40;;;;;;4986586;28;20050;-59
2023/08/31 02:15:07;;;;;;;24.23;22.23;;;9.90;83.40;;;;;;4986712;28;20138;-60
2023/08/31 02:17:34;;;;;;;9.00;5.57;;;9.90;83.30;;;;;;4971099;28;20054;-59
2023/08/31 02:20:01;;;;;;;23.77;21.92;;;9.80;83.20;;;;;;4986511;28;20498;-60
2023/08/31 02:22:27;;;;;;;30.92;28.45;;;9.80;83.40;;;;;;4985384;28;20753;-59
2023/08/31 02:24:52;;;;;;;15.50;14.07;;;9.70;83.50;;;;;;4986119;28;20081;-59
2023/08/31 02:27:18;;;;;;;11.80;9.23;;;9.70;83.60;;;;;;4986002;28;20042;-59
2023/08/31 02:29:44;;;;;;;6.90;4.22;;;9.70;83.50;;;;;;4993368;28;20076;-59
2023/08/31 02:32:09;;;;;;;11.85;9.95;;;9.60;83.40;;;;;;4989753;28;20125;-60
2023/08/31 02:34:35;;;;;;;7.63;4.07;;;9.50;83.30;;;;;;4993757;28;20042;-59
2023/08/31 02:37:01;;;;;;;13.45;6.35;;;9.40;83.40;;;;;;4974516;28;20959;-59
2023/08/31 02:39:26;;;;;;;11.30;3.75;;;9.40;83.70;;;;;;4991364;28;20047;-59
2023/08/31 02:41:52;;;;;;;9.40;5.27;;;9.40;83.80;;;;;;4991386;28;20038;-59
2023/08/31 02:44:18;;;;;;;6.93;4.82;;;9.50;83.90;;;;;;4988491;28;20054;-59
2023/08/31 02:46:43;;;;;;;8.83;5.17;;;9.50;84.00;;;;;;4973398;28;20412;-60
2023/08/31 02:49:09;;;;;;;8.82;6.00;;;9.60;84.10;;;;;;5019401;28;20046;-59
2023/08/31 02:51:35;;;;;;;8.32;3.83;;;9.50;84.10;;;;;;4989397;28;20034;-59
2023/08/31 02:54:00;;;;;;;10.50;5.22;;;9.60;84.10;;;;;;4991962;28;20077;-59
2023/08/31 02:56:26;;;;;;;8.20;4.30;;;9.60;84.00;;;;;;4977551;28;20526;-59
2023/08/31 02:58:52;;;;;;;7.70;5.03;;;9.60;84.00;;;;;;4984960;28;20062;-59
2023/08/31 03:01:17;;;;;;;5.03;3.90;;;9.50;84.00;;;;;;4994566;28;20054;-60
2023/08/31 03:03:45;;;;;;;7.17;5.13;;;9.50;84.00;;;;;;4987234;28;20053;-60
2023/08/31 03:06:11;;;;;;;8.37;5.57;;;9.50;84.00;;;;;;4980498;28;20482;-60
2023/08/31 03:08:37;;;;;;;9.65;4.65;;;9.50;84.00;;;;;;4981870;28;20383;-59
2023/08/31 03:11:04;;;;;;;6.43;3.50;;;9.50;84.10;;;;;;4989676;28;20057;-59
2023/08/31 03:13:31;;;;;;;9.50;7.80;;;9.50;84.20;;;;;;4988098;28;20512;-59
2023/08/31 03:15:57;;;;;;;6.43;4.00;;;9.60;84.20;;;;;;5005082;28;20057;-59
2023/08/31 03:18:23;;;;;;;9.13;4.70;;;9.60;84.20;;;;;;4980296;28;20059;-59
2023/08/31 03:20:49;;;;;;;9.67;7.70;;;9.60;84.20;;;;;;4985178;28;20104;-60
2023/08/31 03:23:15;;;;;;;9.35;4.80;;;9.60;84.20;;;;;;4984186;28;20263;-59
2023/08/31 03:25:41;;;;;;;8.70;5.10;;;9.60;84.30;;;;;;4993482;28;20034;-59
2023/08/31 03:28:07;;;;;;;6.80;4.07;;;9.60;84.30;;;;;;4972499;28;20050;-60
2023/08/31 03:30:33;;;;;;;6.63;4.07;;;9.60;84.30;;;;;;4987701;28;20047;-59
2023/08/31 03:32:58;;;;;;;9.15;4.25;;;9.50;84.30;;;;;;4986777;28;20398;-59
2023/08/31 03:35:27;;;;;;;6.30;2.97;;;9.50;84.20;;;;;;4989195;28;20259;-59
2023/08/31 03:37:53;;;;;;;9.87;6.30;;;9.50;84.10;;;;;;4974201;28;20412;-60
2023/08/31 03:40:19;;;;;;;15.10;14.03;;;9.40;84.10;;;;;;4989226;28;20045;-59
2023/08/31 03:42:45;;;;;;;4.93;2.93;;;9.40;84.20;;;;;;4988002;28;20147;-59
2023/08/31 03:45:11;;;;;;;8.32;3.60;;;9.40;84.20;;;;;;4987484;28;20054;-59
2023/08/31 03:47:37;;;;;;;6.93;4.35;;;9.40;84.30;;;;;;4972412;28;20466;-59
2023/08/31 03:50:03;;;;;;;10.27;6.60;;;9.40;84.40;;;;;;4989280;28;20053;-59
2023/08/31 03:52:29;;;;;;;6.97;3.33;;;9.40;84.40;;;;;;4986517;28;20405;-59
2023/08/31 03:54:55;;;;;;;8.57;5.67;;;9.40;84.50;;;;;;4990311;28;20060;-59
2023/08/31 03:57:21;;;;;;;5.37;2.93;;;9.40;84.60;;;;;;4974173;28;20046;-59
2023/08/31 03:59:47;;;;;;;5.27;3.43;;;9.40;84.60;;;;;;4988010;28;20038;-59
2023/08/31 04:02:13;;;;;;;5.60;3.77;;;9.40;84.60;;;;;;4986210;28;20054;-59
2023/08/31 04:04:38;;;;;;;7.67;3.23;;;9.40;84.60;;;;;;4987777;28;20106;-59
2023/08/31 04:07:06;;;;;;;7.87;6.90;;;9.40;84.60;;;;;;4971927;28;20551;-58
2023/08/31 04:09:32;;;;;;;9.70;4.93;;;9.40;84.60;;;;;;4988321;28;20090;-59
2023/08/31 04:11:58;;;;;;;8.23;4.57;;;9.40;84.60;;;;;;4988194;28;20042;-60
2023/08/31 04:14:26;;;;;;;7.23;4.83;;;9.40;84.50;;;;;;4986193;28;20049;-59
2023/08/31 04:16:52;;;;;;;8.13;4.13;;;9.40;84.60;;;;;;4968745;28;20516;-59
2023/08/31 04:19:17;;;;;;;5.47;3.23;;;9.40;84.50;;;;;;4977137;28;20042;-59
2023/08/31 04:21:43;;;;;;;10.10;6.23;;;9.40;84.60;;;;;;4980522;28;20064;-59
2023/08/31 04:24:09;;;;;;;8.73;4.03;;;9.40;84.70;;;;;;4983543;28;20054;-59
2023/08/31 04:26:35;;;;;;;9.53;4.90;;;9.40;84.70;;;;;;4968979;28;20331;-59
2023/08/31 04:29:03;;;;;;;13.27;11.83;;;9.40;84.70;;;;;;4980047;28;20429;-59
2023/08/31 04:31:29;;;;;;;10.07;9.00;;;9.40;84.80;;;;;;4981863;28;20141;-59
2023/08/31 04:33:55;;;;;;;10.27;5.90;;;9.40;84.80;;;;;;4986214;28;20141;-59
2023/08/31 04:36:21;;;;;;;11.23;7.37;;;9.40;84.90;;;;;;4973947;28;20042;-59
2023/08/31 04:38:48;;;;;;;14.00;12.30;;;9.40;84.90;;;;;;4981425;28;20050;-60
2023/08/31 04:41:15;;;;;;;9.00;6.37;;;9.40;84.90;;;;;;4981643;28;20073;-59
2023/08/31 04:43:41;;;;;;;11.90;8.97;;;9.40;85.00;;;;;;4983833;28;20121;-59
2023/08/31 04:46:06;;;;;;;10.07;6.60;;;9.40;85.10;;;;;;4978605;28;20101;-60
2023/08/31 04:48:33;;;;;;;9.20;6.90;;;9.40;85.10;;;;;;4978000;28;20588;-59
2023/08/31 04:50:59;;;;;;;10.73;7.17;;;9.40;85.10;;;;;;4978551;28;20050;-60
2023/08/31 04:53:25;;;;;;;13.50;11.37;;;9.40;85.20;;;;;;4982853;28;20054;-59
2023/08/31 04:55:51;;;;;;;12.80;7.83;;;9.40;85.30;;;;;;5011244;28;20418;-60
2023/08/31 04:58:17;;;;;;;9.50;7.77;;;9.40;85.20;;;;;;4968363;28;20053;-60
2023/08/31 05:00:44;;;;;;;12.50;11.07;;;9.40;85.30;;;;;;4981180;28;20046;-60
2023/08/31 05:03:10;;;;;;;12.70;6.40;;;9.40;85.40;;;;;;4980836;28;20058;-59
2023/08/31 05:05:36;;;;;;;9.57;8.20;;;9.40;85.40;;;;;;4986228;28;20104;-59
2023/08/31 05:08:03;;;;;;;13.80;11.23;;;9.40;85.30;;;;;;4967165;28;20046;-60
2023/08/31 05:10:28;;;;;;;12.70;9.67;;;9.40;85.50;;;;;;4959898;28;20050;-59
2023/08/31 05:12:54;;;;;;;14.90;12.63;;;9.40;85.50;;;;;;4982859;28;20048;-59
2023/08/31 05:15:20;;;;;;;14.20;7.77;;;9.40;85.50;;;;;;4986808;28;20046;-59
2023/08/31 05:17:47;;;;;;;11.43;8.43;;;9.50;85.50;;;;;;4970821;28;20137;-59
2023/08/31 05:20:13;;;;;;;17.87;11.07;;;9.50;85.60;;;;;;4978083;28;20537;-60
2023/08/31 05:22:39;;;;;;;27.87;24.67;;;9.50;85.60;;;;;;4985453;28;20077;-60
2023/08/31 05:25:05;;;;;;;14.87;11.63;;;9.50;85.70;;;;;;4996396;28;20052;-60
2023/08/31 05:27:30;;;;;;;18.37;11.87;;;9.50;85.70;;;;;;4975391;28;20473;-60
2023/08/31 05:29:56;;;;;;;16.97;14.77;;;9.50;85.80;;;;;;4986563;28;20359;-59
2023/08/31 05:32:22;;;;;;;15.40;12.63;;;9.50;85.80;;;;;;4979667;28;20050;-60
2023/08/31 05:34:47;;;;;;;24.30;22.00;;;9.60;85.70;;;;;;4993574;28;20397;-60
2023/08/31 05:37:14;;;;;;;12.50;7.60;;;9.60;85.80;;;;;;4970718;28;20164;-59
2023/08/31 05:39:40;;;;;;;21.80;19.85;;;9.70;85.80;;;;;;4987728;28;20042;-59
2023/08/31 05:42:05;;;;;;;15.00;13.43;;;9.70;85.80;;;;;;4989118;28;20046;-59
2023/08/31 05:44:31;;;;;;;13.90;11.33;;;9.80;86.00;;;;;;4985866;28;20074;-59
2023/08/31 05:46:57;;;;;;;13.32;11.32;;;9.80;85.90;;;;;;4963117;28;20597;-60
2023/08/31 05:49:23;;;;;;;28.38;25.95;;;9.90;86.00;;;;;;4981674;28;20058;-59
2023/08/31 05:51:49;;;;;;;20.13;16.97;;;10.00;86.00;;;;;;4985185;28;20074;-59
2023/08/31 05:54:15;;;;;;;23.70;21.02;;;10.00;86.00;;;;;;4984502;28;20050;-59
2023/08/31 05:56:41;;;;;;;24.80;21.27;;;10.20;86.00;;;;;;4971249;28;20049;-60
2023/08/31 05:59:07;;;;;;;40.17;36.45;;;10.30;86.10;;;;;;4985567;28;20061;-59
2023/08/31 06:01:34;;;;;;;49.33;45.13;;;10.40;86.10;;;;;;4982794;28;20038;-60
2023/08/31 06:04:00;;;;;;;78.65;72.38;;;10.60;85.90;;;;;;4989099;28;20105;-60
2023/08/31 06:06:26;;;;;;;65.72;60.25;;;10.70;86.00;;;;;;4977673;28;20556;-59
2023/08/31 06:08:53;;;;;;;74.78;68.93;;;10.70;85.80;;;;;;4980926;28;20059;-59
2023/08/31 06:11:19;;;;;;;84.55;77.85;;;10.80;85.80;;;;;;4980960;28;20054;-60
2023/08/31 06:13:45;;;;;;;86.47;79.15;;;10.80;85.70;;;;;;4998366;28;20068;-60
2023/08/31 06:16:10;;;;;;;114.25;106.22;;;10.90;85.60;;;;;;4976216;28;20042;-60
2023/08/31 06:18:36;;;;;;;128.27;118.65;;;10.90;85.50;;;;;;4976958;28;20043;-60
2023/08/31 06:21:02;;;;;;;116.25;107.40;;;11.00;85.60;;;;;;4983153;28;20234;-60
2023/08/31 06:23:27;;;;;;;113.90;105.03;;;11.00;85.60;;;;;;4984358;28;20331;-59
2023/08/31 06:25:53;;;;;;;197.38;182.90;;;11.10;85.60;;;;;;4989310;28;20125;-59
2023/08/31 06:28:19;;;;;;;167.23;155.23;;;11.10;85.60;;;;;;4961278;28;20406;-59
2023/08/31 06:30:46;;;;;;;199.70;184.82;;;11.20;85.50;;;;;;5005687;28;20046;-60
2023/08/31 06:33:13;;;;;;;200.30;185.90;;;11.30;85.50;;;;;;4987396;28;20055;-60
2023/08/31 06:35:39;;;;;;;216.30;200.57;;;11.40;85.40;;;;;;4989372;28;20417;-60
2023/08/31 06:38:04;;;;;;;212.05;196.32;;;11.40;85.40;;;;;;4973814;28;20050;-59
2023/08/31 06:40:30;;;;;;;208.38;192.70;;;11.50;85.30;;;;;;4993265;28;20046;-59
2023/08/31 06:42:56;;;;;;;249.45;231.65;;;11.60;85.30;;;;;;4994148;28;20054;-60
2023/08/31 06:45:22;;;;;;;262.95;244.35;;;11.70;85.30;;;;;;5006661;28;20077;-60
2023/08/31 06:47:48;;;;;;;294.05;273.17;;;11.90;85.20;;;;;;4971121;28;20509;-60
2023/08/31 06:50:13;;;;;;;308.98;285.95;;;11.90;85.10;;;;;;4985585;28;20043;-59
2023/08/31 06:52:41;;;;;;;365.40;339.38;;;12.10;84.90;;;;;;4988681;28;20050;-60
2023/08/31 06:55:07;;;;;;;352.58;327.58;;;12.20;84.70;;;;;;4988909;28;20425;-60
2023/08/31 06:57:32;;;;;;;386.00;359.23;;;12.40;84.50;;;;;;4972774;28;20180;-60
2023/08/31 06:59:58;;;;;;;362.45;336.50;;;12.50;84.10;;;;;;4988773;28;20468;-60
2023/08/31 07:02:26;;;;;;;413.73;384.95;;;12.60;83.70;;;;;;4989613;28;20049;-60
2023/08/31 07:04:52;;;;;;;363.50;338.35;;;12.80;83.20;;;;;;4994647;28;20057;-59
2023/08/31 07:07:18;;;;;;;395.88;366.70;;;12.90;82.70;;;;;;4966467;28;20054;-60
2023/08/31 07:09:46;;;;;;;425.15;395.40;;;13.00;82.40;;;;;;4986434;28;20046;-60
2023/08/31 07:12:11;;;;;;;427.70;397.10;;;13.10;81.90;;;;;;4985119;28;20050;-60
2023/08/31 07:14:38;;;;;;;450.30;417.55;;;13.10;82.00;;;;;;4986071;28;20479;-59
2023/08/31 07:17:03;;;;;;;423.80;393.85;;;13.30;81.60;;;;;;4971841;28;20070;-59
2023/08/31 07:19:29;;;;;;;434.48;404.20;;;13.30;81.30;;;;;;4987502;28;20524;-60
2023/08/31 07:21:54;;;;;;;475.65;442.55;;;13.40;80.80;;;;;;4986648;28;20189;-59
2023/08/31 07:24:21;;;;;;;458.45;424.90;;;13.50;81.00;;;;;;4985115;28;20054;-60
2023/08/31 07:26:47;;;;;;;485.05;449.05;;;13.50;81.00;;;;;;4975993;28;20057;-60
2023/08/31 07:29:13;;;;;;;541.97;499.33;;;13.60;80.50;;;;;;4999764;28;20058;-60
2023/08/31 07:31:39;;;;;;;510.63;471.63;;;13.60;80.20;;;;;;4976134;28;20046;-59
2023/08/31 07:34:05;;;;;;;470.05;435.35;;;13.70;80.20;;;;;;4977118;28;20618;-59
2023/08/31 07:36:31;;;;;;;542.97;500.65;;;13.80;80.00;;;;;;4963955;28;20058;-60
2023/08/31 07:38:57;;;;;;;497.13;459.88;;;13.90;80.20;;;;;;4974625;28;20916;-61
2023/08/31 07:41:23;;;;;;;461.30;427.65;;;13.90;80.20;;;;;;4975696;28;20058;-60
2023/08/31 07:43:49;;;;;;;487.13;451.38;;;14.00;79.40;;;;;;4977649;28;20449;-60
2023/08/31 07:46:15;;;;;;;461.83;429.95;;;14.10;79.20;;;;;;4966482;28;21061;-60
2023/08/31 07:48:42;;;;;;;559.67;514.40;;;14.20;79.30;;;;;;4970726;28;20945;-60
2023/08/31 07:51:08;;;;;;;499.85;463.25;;;14.20;77.80;;;;;;4976739;28;20046;-61
2023/08/31 07:53:34;;;;;;;462.75;430.10;;;14.30;77.90;;;;;;4975397;28;20054;-60
2023/08/31 07:56:00;;;;;;;508.08;470.73;;;14.40;77.50;;;;;;4977383;28;20096;-60
2023/08/31 07:58:26;;;;;;;526.45;485.95;;;14.50;77.80;;;;;;4959856;28;20054;-60
2023/08/31 08:00:57;;;;;;;561.30;517.65;;;14.50;76.90;;;;;;4977102;28;20056;-60
2023/08/31 08:03:23;;;;;;;505.17;467.25;;;14.60;76.10;;;;;;4975164;28;20156;-60
2023/08/31 08:05:49;;;;;;;594.08;538.00;;;14.60;76.60;;;;;;4975337;28;20567;-60
2023/08/31 08:08:15;;;;;;;496.17;460.40;;;14.70;76.50;;;;;;4961862;28;20691;-60
2023/08/31 08:10:42;;;;;;;517.28;477.55;;;14.80;76.40;;;;;;4974681;28;20378;-60
2023/08/31 08:13:11;;;;;;;473.73;441.30;;;14.80;76.50;;;;;;4977174;28;20478;-61
2023/08/31 08:15:38;;;;;;;486.25;450.60;;;14.90;75.90;;;;;;4977113;28;20497;-61
2023/08/31 08:18:04;;;;;;;498.90;464.08;;;15.00;76.20;;;;;;4961534;28;20400;-61
2023/08/31 08:20:29;;;;;;;519.80;481.70;;;15.00;76.00;;;;;;4977666;28;20112;-59
2023/08/31 08:22:57;;;;;;;566.60;521.88;;;15.00;76.00;;;;;;4977264;28;20452;-60
2023/08/31 08:25:23;;;;;;;534.97;495.85;;;15.20;76.00;;;;;;4975432;28;20529;-60
2023/08/31 08:27:49;;;;;;;548.28;506.42;;;15.20;75.50;;;;;;4959666;28;20097;-60
2023/08/31 08:30:15;;;;;;;583.65;535.60;;;15.20;74.40;;;;;;4977664;28;20050;-60
2023/08/31 08:32:41;;;;;;;554.42;511.52;;;15.30;74.80;;;;;;4975501;28;20540;-60
2023/08/31 08:35:08;;;;;;;757.72;679.05;;;15.40;75.30;;;;;;4976956;28;20580;-60
2023/08/31 08:37:34;;;;;;;531.38;490.15;;;15.40;74.60;;;;;;4960955;28;20053;-60
2023/08/31 08:40:00;;;;;;;543.13;502.65;;;15.50;74.80;;;;;;4976484;28;20529;-60
2023/08/31 08:42:26;;;;;;;525.35;487.35;;;15.60;75.00;;;;;;4974916;28;20167;-59
2023/08/31 08:44:52;;;;;;;533.95;494.45;;;15.60;75.20;;;;;;4977149;28;20552;-60
2023/08/31 08:47:18;;;;;;;709.00;645.55;;;15.70;74.50;;;;;;4960973;28;20065;-60
2023/08/31 08:49:44;;;;;;;677.88;617.38;;;15.80;74.50;;;;;;4974830;28;20464;-61
2023/08/31 08:52:11;;;;;;;636.83;581.35;;;15.80;74.40;;;;;;4973426;28;20072;-61
2023/08/31 08:54:38;;;;;;;706.47;643.88;;;15.80;70.10;;;;;;4975497;28;20057;-60
2023/08/31 08:57:04;;;;;;;583.35;539.72;;;15.60;71.40;;;;;;4974838;28;20065;-59
2023/08/31 08:59:31;;;;;;;695.67;633.28;;;15.50;71.40;;;;;;4975113;28;20513;-60
2023/08/31 09:01:57;;;;;;;742.38;674.28;;;15.30;71.70;;;;;;4975759;28;20054;-60
2023/08/31 09:04:23;;;;;;;614.40;563.80;;;15.20;72.10;;;;;;4974171;28;20113;-60
2023/08/31 09:06:50;;;;;;;545.95;504.35;;;15.10;71.80;;;;;;4958828;28;20440;-60
2023/08/31 09:09:17;;;;;;;542.80;502.27;;;15.10;72.90;;;;;;4975150;28;20933;-60
2023/08/31 09:11:43;;;;;;;530.78;489.98;;;15.20;73.00;;;;;;4976471;28;20046;-60
2023/08/31 09:14:16;;;;;;;707.50;642.70;;;15.20;73.30;;;;;;4975160;28;20046;-60
2023/08/31 09:16:50;;;;;;;563.30;518.38;;;15.30;71.80;;;;;;4960652;28;20078;-60
2023/08/31 09:19:24;;;;;;;547.25;506.88;;;15.40;72.20;;;;;;4989132;28;20156;-61
2023/08/31 09:21:51;;;;;;;674.25;614.50;;;15.50;73.50;;;;;;4990439;28;20671;-60
2023/08/31 09:24:18;;;;;;;734.75;668.97;;;15.60;72.80;;;;;;4972287;28;20046;-60
2023/08/31 09:26:46;;;;;;;559.53;517.20;;;15.80;72.20;;;;;;4974497;28;20072;-60
2023/08/31 09:29:12;;;;;;;709.67;643.20;;;16.00;72.20;;;;;;4971871;28;21219;-60
2023/08/31 09:31:41;;;;;;;632.67;578.47;;;16.00;72.60;;;;;;4974573;28;20077;-60
2023/08/31 09:34:07;;;;;;;610.28;561.40;;;16.20;72.50;;;;;;4975445;28;20046;-60
2023/08/31 09:36:32;;;;;;;650.58;596.83;;;16.20;71.50;;;;;;4960873;28;20831;-60
2023/08/31 09:38:59;;;;;;;751.90;679.22;;;16.20;68.90;;;;;;4977591;28;20129;-60
2023/08/31 09:41:25;;;;;;;707.05;642.92;;;16.10;66.90;;;;;;4979663;28;20055;-60
2023/08/31 09:43:50;;;;;;;723.28;659.42;;;16.00;69.80;;;;;;4978808;28;20119;-60
2023/08/31 09:46:16;;;;;;;744.78;676.50;;;15.80;70.20;;;;;;4968530;28;20052;-60
2023/08/31 09:48:43;;;;;;;782.22;705.95;;;15.70;70.60;;;;;;4975648;28;20092;-60
2023/08/31 09:51:10;;;;;;;625.22;574.17;;;15.60;71.00;;;;;;4980926;28;20460;-60
2023/08/31 09:53:37;;;;;;;730.25;665.25;;;15.50;71.40;;;;;;4980705;28;20046;-60
2023/08/31 09:56:07;;;;;;;568.45;525.25;;;15.40;72.30;;;;;;4981014;28;20527;-60
2023/08/31 09:58:33;;;;;;;568.95;526.72;;;15.50;73.00;;;;;;4985348;28;20062;-60
2023/08/31 10:01:00;;;;;;;599.03;551.47;;;15.60;73.40;;;;;;4981247;28;20050;-60
2023/08/31 10:03:27;;;;;;;636.88;586.45;;;15.70;73.30;;;;;;4978888;28;20073;-60
2023/08/31 10:05:55;;;;;;;676.83;617.05;;;15.80;73.40;;;;;;4980382;28;20065;-60
2023/08/31 10:08:20;;;;;;;720.25;654.17;;;15.90;73.10;;;;;;4962650;28;20065;-60
2023/08/31 10:10:47;;;;;;;706.67;643.67;;;15.80;72.50;;;;;;4979645;28;20050;-60
2023/08/31 10:13:13;;;;;;;716.67;653.05;;;15.80;71.40;;;;;;4980063;28;20161;-60
2023/08/31 10:15:41;;;;;;;720.10;654.20;;;15.70;71.10;;;;;;4979206;28;20483;-60
2023/08/31 10:18:07;;;;;;;692.15;629.38;;;15.80;71.40;;;;;;4962811;28;20473;-61
2023/08/31 10:20:34;;;;;;;601.72;555.05;;;15.80;71.20;;;;;;4978803;28;20046;-60
2023/08/31 10:23:06;;;;;;;562.80;520.22;;;15.80;71.70;;;;;;4978303;28;20062;-60
2023/08/31 10:25:50;;;;;;;716.85;647.60;;;16.00;71.80;;;;;;4976951;28;20182;-60
2023/08/31 10:28:20;;;;;;;751.83;681.20;;;16.10;72.00;;;;;;4962776;28;20072;-61
2023/08/31 10:31:05;;;;;;;757.05;690.30;;;16.20;72.60;;;;;;4978028;28;20117;-60
2023/08/31 10:33:43;;;;;;;595.50;548.08;;;16.10;72.90;;;;;;4977559;28;20050;-60
2023/08/31 10:36:15;;;;;;;670.50;613.95;;;16.00;72.00;;;;;;4969438;28;21113;-60
2023/08/31 10:38:41;;;;;;;;;;;15.80;70.70;;;;;;4975159;28;20077;-60
2023/08/31 10:41:07;;;;;;;523.15;484.48;;;15.60;69.10;;;;;;4978376;28;20016;-61
2023/08/31 10:43:47;;;;;;;686.30;624.38;;;15.40;71.00;;;;;;4976231;28;20062;-60
2023/08/31 10:46:28;;;;;;;673.05;615.08;;;15.30;70.90;;;;;;4966781;28;20325;-60
2023/08/31 10:48:56;;;;;;;564.75;521.05;;;15.10;71.80;;;;;;4973424;28;20058;-60
2023/08/31 10:51:32;;;;;;;592.55;545.17;;;15.00;72.50;;;;;;4978312;28;21209;-60
2023/08/31 10:54:13;;;;;;;718.50;649.75;;;15.00;73.00;;;;;;4975651;28;20054;-60
2023/08/31 10:56:57;;;;;;;527.28;488.23;;;15.00;73.50;;;;;;4964517;28;20077;-60
2023/08/31 10:59:24;;;;;;;576.20;534.22;;;15.20;73.70;;;;;;4975566;28;20323;-60
2023/08/31 11:01:59;;;;;;;553.47;512.80;;;15.30;74.00;;;;;;4976937;28;20172;-60
2023/08/31 11:04:27;;;;;;;538.35;498.95;;;15.50;73.60;;;;;;4975540;28;20042;-60
2023/08/31 11:07:16;;;;;;;675.47;615.85;;;15.60;73.70;;;;;;4962609;28;20108;-60
2023/08/31 11:09:42;;;;;;;714.30;652.97;;;16.00;72.90;;;;;;4975671;28;20105;-60
2023/08/31 11:12:08;;;;;;;597.40;551.58;;;16.10;73.00;;;;;;4992280;28;20484;-60
2023/08/31 11:14:34;;;;;;;746.92;676.47;;;16.40;73.30;;;;;;4977203;28;20146;-59
2023/08/31 11:17:01;;;;;;;722.55;660.78;;;16.50;72.40;;;;;;4963484;28;20051;-60
2023/08/31 11:19:27;;;;;;;627.72;578.28;;;16.50;72.00;;;;;;4965225;28;20728;-60
2023/08/31 11:21:54;;;;;;;602.35;557.28;;;16.60;72.40;;;;;;4977232;28;20069;-60
2023/08/31 11:24:21;;;;;;;616.20;568.85;;;16.70;72.50;;;;;;4975208;28;20064;-60
2023/08/31 11:26:51;;;;;;;753.10;687.83;;;17.00;72.50;;;;;;4963847;28;20084;-60
2023/08/31 11:29:17;;;;;;;721.25;660.88;;;17.20;72.30;;;;;;4974336;28;20128;-60
2023/08/31 11:31:43;;;;;;;781.80;712.47;;;17.40;69.90;;;;;;4976919;28;20444;-60
2023/08/31 11:34:13;;;;;;;796.00;722.97;;;17.60;69.40;;;;;;4975509;28;20121;-60
2023/08/31 11:36:41;;;;;;;664.45;608.00;;;17.60;69.80;;;;;;4960458;28;20676;-60
2023/08/31 11:39:08;;;;;;;735.55;667.22;;;17.60;70.20;;;;;;4977120;28;20053;-60
2023/08/31 11:41:36;;;;;;;786.97;717.10;;;17.40;71.00;;;;;;4978183;28;20421;-60
2023/08/31 11:44:06;;;;;;;624.45;576.33;;;17.00;71.70;;;;;;4975749;28;20081;-60
2023/08/31 11:46:32;;;;;;;765.43;697.13;;;16.70;72.10;;;;;;4963968;28;20082;-60
2023/08/31 11:49:00;;;;;;;762.33;696.08;;;16.40;72.90;;;;;;4976072;28;20081;-60
2023/08/31 11:51:29;;;;;;;621.00;573.47;;;16.20;73.40;;;;;;4979653;28;20050;-60
2023/08/31 11:53:56;;;;;;;732.05;663.60;;;16.10;74.20;;;;;;4977287;28;20054;-60
2023/08/31 11:56:21;;;;;;;677.92;622.67;;;16.10;75.10;;;;;;4963962;28;20187;-61
2023/08/31 11:58:51;;;;;;;688.67;629.33;;;16.20;75.40;;;;;;4972138;28;20707;-60
2023/08/31 12:01:23;;;;;;;667.58;612.92;;;16.40;75.90;;;;;;4976944;28;20141;-60
2023/08/31 12:03:49;;;;;;;771.53;699.47;;;16.60;75.80;;;;;;4976803;28;20054;-61
2023/08/31 12:06:19;;;;;;;692.40;632.17;;;16.80;75.30;;;;;;4968999;28;20053;-60
2023/08/31 12:08:45;;;;;;;694.35;629.90;;;16.90;74.70;;;;;;4973524;28;20058;-60
2023/08/31 12:11:11;;;;;;;678.13;620.50;;;17.00;74.50;;;;;;4976867;28;20065;-60
2023/08/31 12:13:37;;;;;;;681.42;620.70;;;17.00;74.10;;;;;;4978867;28;20050;-60
2023/08/31 12:16:04;;;;;;;676.88;618.22;;;17.00;73.80;;;;;;4976860;28;20159;-60
2023/08/31 12:18:37;;;;;;;667.13;608.33;;;17.00;73.80;;;;;;4947421;28;20054;-60
2023/08/31 12:21:04;;;;;;;757.40;685.15;;;16.90;73.20;;;;;;4976084;28;20054;-60
2023/08/31 12:23:30;;;;;;;797.20;723.50;;;16.90;73.50;;;;;;4975780;28;20065;-61